createdAt,value
2018-07-25T00:02:08.901Z,99.90
2018-07-25T00:04:37.329Z,99.90
2018-07-25T00:07:05.816Z,99.90
2018-07-25T00:09:34.315Z,99.90
2018-07-25T00:12:02.712Z,99.90
2018-07-25T00:14:31.151Z,99.90
2018-07-25T00:16:59.564Z,99.90
2018-07-25T00:19:28.013Z,99.90
2018-07-25T00:21:56.452Z,99.90
2018-07-25T00:24:24.887Z,99.90
2018-07-25T00:26:53.296Z,99.90
2018-07-25T00:29:21.821Z,99.90
2018-07-25T00:31:50.252Z,99.90
2018-07-25T00:34:18.680Z,99.90
2018-07-25T00:36:47.095Z,99.90
2018-07-25T00:39:15.532Z,99.90
2018-07-25T00:41:43.999Z,99.90
2018-07-25T00:44:12.400Z,99.90
2018-07-25T00:46:40.822Z,99.90
2018-07-25T00:49:09.241Z,99.90
2018-07-25T00:54:05.812Z,99.90
2018-07-25T00:56:34.267Z,99.90
2018-07-25T00:59:02.704Z,99.90
2018-07-25T01:01:31.137Z,99.90
2018-07-25T01:03:59.569Z,99.90
2018-07-25T01:06:27.995Z,99.90
2018-07-25T01:08:56.442Z,99.90
2018-07-25T01:11:24.873Z,99.90
2018-07-25T01:13:53.288Z,99.90
2018-07-25T01:16:21.715Z,99.90
2018-07-25T01:18:50.140Z,99.90
2018-07-25T01:21:18.576Z,99.90
2018-07-25T01:23:46.984Z,99.90
2018-07-25T01:26:15.416Z,99.90
2018-07-25T01:28:43.867Z,99.90
2018-07-25T01:31:12.300Z,99.90
2018-07-25T01:33:40.708Z,99.90
2018-07-25T01:38:37.577Z,99.90
2018-07-25T01:41:06.009Z,99.90
2018-07-25T01:43:34.441Z,99.90
2018-07-25T01:46:02.868Z,99.90
2018-07-25T01:48:31.296Z,99.90
2018-07-25T01:50:59.751Z,99.90
2018-07-25T01:53:28.183Z,99.90
2018-07-25T01:55:56.593Z,99.90
2018-07-25T01:58:25.019Z,99.90
2018-07-25T02:00:53.425Z,99.90
2018-07-25T02:03:21.862Z,99.90
2018-07-25T02:05:50.271Z,99.90
2018-07-25T02:08:18.769Z,99.90
2018-07-25T02:10:47.193Z,99.90
2018-07-25T02:13:16.678Z,99.90
2018-07-25T02:15:45.721Z,99.90
2018-07-25T02:18:14.162Z,99.90
2018-07-25T02:20:42.596Z,99.90
2018-07-25T02:23:11.024Z,99.90
2018-07-25T02:25:39.428Z,99.90
2018-07-25T02:28:07.865Z,99.90
2018-07-25T02:30:36.260Z,99.90
2018-07-25T02:33:04.697Z,99.90
2018-07-25T02:35:33.132Z,99.90
2018-07-25T02:38:01.560Z,99.90
2018-07-25T02:40:30.012Z,99.90
2018-07-25T02:42:58.413Z,99.90
2018-07-25T02:45:30.333Z,99.90
2018-07-25T02:47:58.765Z,99.90
2018-07-25T02:50:27.198Z,99.90
2018-07-25T02:52:55.630Z,99.90
2018-07-25T02:55:24.073Z,99.90
2018-07-25T02:57:52.535Z,99.90
2018-07-25T03:00:20.984Z,99.90
2018-07-25T03:02:49.432Z,99.90
2018-07-25T03:05:17.865Z,99.90
2018-07-25T03:07:46.273Z,99.90
2018-07-25T03:10:14.724Z,99.90
2018-07-25T03:12:43.164Z,99.90
2018-07-25T03:15:11.587Z,99.90
2018-07-25T03:17:40.023Z,99.90
2018-07-25T03:20:08.528Z,99.90
2018-07-25T03:25:05.306Z,99.90
2018-07-25T03:27:33.724Z,99.90
2018-07-25T03:30:02.141Z,99.90
2018-07-25T03:32:30.583Z,99.90
2018-07-25T03:34:59.019Z,99.90
2018-07-25T03:37:27.516Z,99.90
2018-07-25T03:39:55.978Z,99.90
2018-07-25T03:42:24.437Z,99.90
2018-07-25T03:44:52.856Z,99.90
2018-07-25T03:47:21.315Z,99.90
2018-07-25T03:49:49.751Z,99.90
2018-07-25T03:52:18.196Z,99.90
2018-07-25T03:57:14.775Z,99.90
2018-07-25T03:59:43.220Z,99.90
2018-07-25T04:04:40.073Z,99.90
2018-07-25T04:07:08.521Z,99.90
2018-07-25T04:09:36.972Z,99.90
2018-07-25T04:12:05.585Z,99.90
2018-07-25T04:14:34.008Z,99.90
2018-07-25T04:17:02.491Z,99.90
2018-07-25T04:19:30.920Z,99.90
2018-07-25T04:21:59.340Z,99.90
2018-07-25T04:24:27.795Z,99.90
2018-07-25T04:26:56.213Z,99.90
2018-07-25T04:29:24.673Z,99.90
2018-07-25T04:31:53.102Z,99.90
2018-07-25T04:34:21.535Z,99.90
2018-07-25T04:36:49.961Z,99.90
2018-07-25T04:39:18.415Z,99.90
2018-07-25T04:41:46.844Z,99.90
2018-07-25T04:44:15.296Z,99.90
2018-07-25T04:46:43.822Z,99.90
2018-07-25T04:49:12.214Z,99.90
2018-07-25T04:51:40.663Z,99.90
2018-07-25T04:54:09.121Z,99.90
2018-07-25T04:56:37.556Z,99.90
2018-07-25T04:59:05.992Z,99.90
2018-07-25T05:04:02.546Z,99.90
2018-07-25T05:06:31.003Z,99.90
2018-07-25T05:08:59.449Z,99.90
2018-07-25T05:11:28.035Z,99.90
2018-07-25T05:13:56.464Z,99.90
2018-07-25T05:16:24.904Z,99.90
2018-07-25T05:18:53.335Z,99.90
2018-07-25T05:21:21.787Z,99.90
2018-07-25T05:23:50.229Z,99.90
2018-07-25T05:26:18.675Z,99.90
2018-07-25T05:28:47.107Z,99.90
2018-07-25T05:31:15.579Z,99.90
2018-07-25T05:33:44.029Z,99.90
2018-07-25T05:36:12.476Z,99.90
2018-07-25T05:38:40.900Z,99.90
2018-07-25T05:41:09.408Z,99.90
2018-07-25T05:43:37.852Z,99.90
2018-07-25T05:46:06.369Z,99.90
2018-07-25T05:48:35.033Z,99.90
2018-07-25T05:51:03.517Z,99.90
2018-07-25T05:53:32.255Z,99.20
2018-07-25T05:56:00.684Z,96.80
2018-07-25T05:58:29.135Z,95.80
2018-07-25T06:00:57.763Z,94.10
2018-07-25T06:03:26.274Z,92.40
2018-07-25T06:05:54.695Z,91.00
2018-07-25T06:08:23.119Z,89.90
2018-07-25T06:10:51.555Z,86.50
2018-07-25T06:13:20.020Z,81.90
2018-07-25T06:15:48.460Z,80.50
2018-07-25T06:18:16.912Z,78.80
2018-07-25T06:20:45.352Z,77.10
2018-07-25T06:23:14.008Z,77.50
2018-07-25T06:25:42.456Z,75.40
2018-07-25T06:28:10.909Z,73.80
2018-07-25T06:30:39.339Z,73.90
2018-07-25T06:33:07.800Z,73.50
2018-07-25T06:35:36.264Z,72.50
2018-07-25T06:38:04.798Z,70.70
2018-07-25T06:40:33.265Z,68.40
2018-07-25T06:43:01.739Z,70.30
2018-07-25T06:45:30.172Z,66.30
2018-07-25T06:47:58.628Z,64.40
2018-07-25T06:50:27.096Z,63.30
2018-07-25T06:52:55.613Z,59.90
2018-07-25T06:55:24.050Z,61.10
2018-07-25T06:57:52.604Z,59.90
2018-07-25T07:00:21.055Z,59.90
2018-07-25T07:02:49.515Z,59.70
2018-07-25T07:05:17.983Z,58.00
2018-07-25T07:07:46.436Z,58.30
2018-07-25T07:10:14.924Z,55.80
2018-07-25T07:12:43.413Z,57.00
2018-07-25T07:15:12.390Z,56.60
2018-07-25T07:17:41.657Z,57.30
2018-07-25T07:20:10.132Z,57.00
2018-07-25T07:22:38.584Z,59.20
2018-07-25T07:25:07.288Z,56.90
2018-07-25T07:30:03.977Z,57.20
2018-07-25T07:32:32.471Z,56.90
2018-07-25T07:35:00.931Z,57.00
2018-07-25T07:37:29.406Z,58.30
2018-07-25T07:39:57.847Z,57.90
2018-07-25T07:42:26.299Z,58.00
2018-07-25T07:44:54.736Z,56.40
2018-07-25T07:47:23.180Z,57.30
2018-07-25T07:49:51.635Z,57.80
2018-07-25T07:52:20.093Z,57.50
2018-07-25T07:54:48.553Z,57.90
2018-07-25T07:57:16.991Z,57.00
2018-07-25T07:59:45.444Z,56.80
2018-07-25T08:04:42.047Z,55.20
2018-07-25T08:07:10.477Z,54.40
2018-07-25T08:09:38.928Z,53.80
2018-07-25T08:12:07.361Z,53.30
2018-07-25T08:14:35.809Z,52.20
2018-07-25T08:17:04.259Z,52.50
2018-07-25T08:19:32.728Z,52.10
2018-07-25T08:22:01.156Z,51.30
2018-07-25T08:24:29.616Z,52.40
2018-07-25T08:26:58.060Z,52.30
2018-07-25T08:29:26.513Z,52.60
2018-07-25T08:31:54.940Z,53.00
2018-07-25T08:34:23.393Z,50.80
2018-07-25T08:36:51.837Z,51.20
2018-07-25T08:39:20.341Z,51.00
2018-07-25T08:41:48.788Z,51.40
2018-07-25T08:44:17.240Z,51.60
2018-07-25T08:46:45.674Z,51.60
2018-07-25T08:49:14.107Z,51.30
2018-07-25T08:51:42.585Z,51.70
2018-07-25T08:54:11.029Z,50.10
2018-07-25T08:56:39.448Z,49.70
2018-07-25T08:59:07.912Z,49.20
2018-07-25T09:01:36.332Z,48.00
2018-07-25T09:04:04.797Z,49.10
2018-07-25T09:06:33.234Z,49.00
2018-07-25T09:09:01.702Z,48.20
2018-07-25T09:11:35.105Z,47.60
2018-07-25T09:14:04.089Z,47.60
2018-07-25T09:16:32.695Z,46.50
2018-07-25T09:19:01.745Z,46.60
2018-07-25T09:21:30.139Z,48.90
2018-07-25T09:23:58.617Z,48.90
2018-07-25T09:26:27.080Z,47.80
2018-07-25T09:28:55.700Z,47.70
2018-07-25T09:31:30.613Z,47.50
2018-07-25T09:33:59.154Z,48.30
2018-07-25T09:36:27.538Z,48.90
2018-07-25T09:38:56.048Z,47.70
2018-07-25T09:41:24.510Z,47.80
2018-07-25T09:43:52.985Z,47.70
2018-07-25T09:46:21.437Z,48.40
2018-07-25T09:48:49.916Z,47.10
2018-07-25T09:51:18.356Z,46.60
2018-07-25T09:53:46.813Z,47.10
2018-07-25T09:56:15.262Z,48.20
2018-07-25T09:58:43.717Z,46.80
2018-07-25T10:01:12.170Z,47.20
2018-07-25T10:03:40.620Z,46.60
2018-07-25T10:06:09.071Z,46.10
2018-07-25T10:08:37.516Z,46.00
2018-07-25T10:11:06.135Z,45.80
2018-07-25T10:13:34.608Z,46.20
2018-07-25T10:16:03.240Z,44.70
2018-07-25T10:18:31.682Z,45.50
2018-07-25T10:21:00.155Z,46.10
2018-07-25T10:23:28.647Z,46.30
2018-07-25T10:25:57.116Z,45.40
2018-07-25T10:28:25.530Z,45.80
2018-07-25T10:30:53.992Z,45.50
2018-07-25T10:33:22.428Z,45.30
2018-07-25T10:35:50.901Z,45.00
2018-07-25T10:38:19.353Z,44.70
2018-07-25T10:40:47.833Z,45.80
2018-07-25T10:43:16.275Z,46.20
2018-07-25T10:45:44.779Z,46.80
2018-07-25T10:48:13.215Z,46.80
2018-07-25T10:50:41.690Z,45.10
2018-07-25T10:53:10.141Z,46.20
2018-07-25T10:55:38.660Z,47.60
2018-07-25T10:58:07.157Z,45.90
2018-07-25T11:00:35.631Z,47.00
2018-07-25T11:03:04.122Z,46.10
2018-07-25T11:05:32.594Z,44.90
2018-07-25T11:08:01.040Z,47.10
2018-07-25T11:10:29.548Z,46.30
2018-07-25T11:12:57.964Z,45.90
2018-07-25T11:15:26.460Z,47.10
2018-07-25T11:17:54.908Z,45.40
2018-07-25T11:20:23.368Z,44.20
2018-07-25T11:22:51.804Z,43.80
2018-07-25T11:25:20.267Z,44.10
2018-07-25T11:27:48.716Z,44.00
2018-07-25T11:30:17.169Z,43.90
2018-07-25T11:32:45.663Z,44.90
2018-07-25T11:35:14.076Z,43.40
2018-07-25T11:37:42.504Z,42.90
2018-07-25T11:40:10.956Z,44.00
2018-07-25T11:42:39.418Z,43.70
2018-07-25T11:45:07.880Z,43.30
2018-07-25T11:47:36.337Z,44.30
2018-07-25T11:50:04.931Z,43.80
2018-07-25T11:52:33.346Z,45.00
2018-07-25T11:55:01.834Z,45.40
2018-07-25T11:57:30.308Z,48.10
2018-07-25T11:59:58.763Z,46.00
2018-07-25T12:02:27.201Z,45.20
2018-07-25T12:04:55.648Z,44.70
2018-07-25T12:07:24.124Z,44.30
2018-07-25T12:09:52.560Z,44.80
2018-07-25T12:12:21.016Z,43.90
2018-07-25T12:14:49.504Z,43.40
2018-07-25T12:17:17.971Z,44.30
2018-07-25T12:19:46.411Z,44.50
2018-07-25T12:22:14.894Z,44.80
2018-07-25T12:24:43.357Z,44.50
2018-07-25T12:27:12.652Z,46.20
2018-07-25T12:29:41.120Z,46.40
2018-07-25T12:32:09.681Z,45.70
2018-07-25T12:34:38.053Z,45.70
2018-07-25T12:37:06.566Z,44.10
2018-07-25T12:39:35.024Z,46.00
2018-07-25T12:42:03.483Z,44.90
2018-07-25T12:44:31.928Z,45.20
2018-07-25T12:47:00.389Z,46.50
2018-07-25T12:49:28.840Z,44.40
2018-07-25T12:51:57.317Z,45.40
2018-07-25T12:54:25.773Z,44.70
2018-07-25T12:56:54.456Z,44.60
2018-07-25T12:59:22.931Z,43.00
2018-07-25T13:01:51.432Z,43.70
2018-07-25T13:04:19.843Z,44.00
2018-07-25T13:06:48.332Z,43.30
2018-07-25T13:09:17.021Z,44.00
2018-07-25T13:11:45.464Z,44.60
2018-07-25T13:14:13.914Z,46.30
2018-07-25T13:16:42.408Z,47.40
2018-07-25T13:19:10.888Z,47.70
2018-07-25T13:21:39.390Z,47.90
2018-07-25T13:24:07.900Z,48.90
2018-07-25T13:26:36.379Z,48.50
2018-07-25T13:29:04.837Z,47.60
2018-07-25T13:31:33.300Z,46.40
2018-07-25T13:34:01.761Z,45.50
2018-07-25T13:36:30.235Z,44.60
2018-07-25T13:38:58.692Z,44.10
2018-07-25T13:41:27.179Z,43.20
2018-07-25T13:43:55.631Z,44.00
2018-07-25T13:46:24.174Z,43.40
2018-07-25T13:48:52.545Z,43.20
2018-07-25T13:51:21.047Z,43.50
2018-07-25T13:53:49.544Z,43.70
2018-07-25T13:56:18.037Z,42.30
2018-07-25T13:58:46.501Z,42.30
2018-07-25T14:01:15.212Z,42.50
2018-07-25T14:03:43.666Z,41.60
2018-07-25T14:06:12.168Z,39.90
2018-07-25T14:08:40.691Z,42.90
2018-07-25T14:11:10.024Z,42.10
2018-07-25T14:13:38.483Z,42.40
2018-07-25T14:16:07.432Z,42.20
2018-07-25T14:18:35.895Z,42.40
2018-07-25T14:21:04.368Z,42.10
2018-07-25T14:23:32.939Z,42.40
2018-07-25T14:26:01.377Z,42.30
2018-07-25T14:28:29.962Z,41.80
2018-07-25T14:30:58.408Z,42.00
2018-07-25T14:33:26.867Z,41.70
2018-07-25T14:35:55.348Z,42.40
2018-07-25T14:38:23.812Z,43.90
2018-07-25T14:40:52.263Z,42.60
2018-07-25T14:43:20.797Z,42.70
2018-07-25T14:45:49.261Z,43.50
2018-07-25T14:48:17.735Z,44.70
2018-07-25T14:50:46.244Z,45.50
2018-07-25T14:53:14.744Z,45.50
2018-07-25T14:55:43.228Z,44.90
2018-07-25T14:58:11.739Z,43.80
2018-07-25T15:00:40.232Z,44.30
2018-07-25T15:03:08.735Z,44.30
2018-07-25T15:05:37.211Z,45.20
2018-07-25T15:08:06.430Z,46.00
2018-07-25T15:10:35.000Z,46.50
2018-07-25T15:13:03.550Z,46.60
2018-07-25T15:15:31.982Z,47.20
2018-07-25T15:18:00.480Z,45.90
2018-07-25T15:20:28.960Z,45.90
2018-07-25T15:22:57.416Z,45.90
2018-07-25T15:25:25.872Z,45.80
2018-07-25T15:27:54.354Z,43.90
2018-07-25T15:30:22.817Z,45.00
2018-07-25T15:32:51.341Z,46.40
2018-07-25T15:35:19.818Z,47.50
2018-07-25T15:37:48.311Z,47.00
2018-07-25T15:40:16.779Z,46.70
2018-07-25T15:42:45.291Z,47.50
2018-07-25T15:45:13.742Z,47.70
2018-07-25T15:47:42.236Z,47.30
2018-07-25T15:50:10.684Z,47.60
2018-07-25T15:52:39.144Z,49.00
2018-07-25T15:55:07.680Z,48.50
2018-07-25T15:57:36.168Z,47.80
2018-07-25T16:00:06.235Z,49.00
2018-07-25T16:02:34.752Z,46.90
2018-07-25T16:05:03.384Z,47.90
2018-07-25T16:07:31.916Z,47.60
2018-07-25T16:10:00.406Z,47.70
2018-07-25T16:12:28.863Z,47.70
2018-07-25T16:17:25.472Z,49.10
2018-07-25T16:19:53.995Z,49.00
2018-07-25T16:22:22.557Z,48.70
2018-07-25T16:24:51.027Z,48.50
2018-07-25T16:27:19.702Z,49.00
2018-07-25T16:29:48.211Z,48.40
2018-07-25T16:32:16.736Z,48.90
2018-07-25T16:34:46.209Z,48.00
2018-07-25T16:37:14.951Z,48.30
2018-07-25T16:39:43.557Z,47.90
2018-07-25T16:42:12.085Z,47.90
2018-07-25T16:44:40.605Z,47.60
2018-07-25T16:47:09.147Z,48.10
2018-07-25T16:49:37.643Z,48.20
2018-07-25T16:52:06.159Z,48.20
2018-07-25T16:54:35.303Z,48.80
2018-07-25T16:57:03.849Z,49.10
2018-07-25T16:59:32.416Z,49.10
2018-07-25T17:02:00.916Z,49.40
2018-07-25T17:04:29.384Z,48.40
2018-07-25T17:06:57.843Z,48.70
2018-07-25T17:09:26.339Z,48.80
2018-07-25T17:11:54.803Z,49.60
2018-07-25T17:14:23.305Z,49.40
2018-07-25T17:16:51.759Z,49.40
2018-07-25T17:19:20.260Z,48.80
2018-07-25T17:21:48.719Z,49.90
2018-07-25T17:24:17.200Z,50.90
2018-07-25T17:26:45.696Z,50.90
2018-07-25T17:31:42.292Z,52.50
2018-07-25T17:34:10.766Z,52.10
2018-07-25T17:36:39.219Z,53.50
2018-07-25T17:41:36.556Z,53.60
2018-07-25T17:44:05.055Z,53.90
2018-07-25T17:46:33.588Z,54.40
2018-07-25T17:49:02.080Z,54.70
2018-07-25T17:51:30.575Z,54.30
2018-07-25T17:53:59.035Z,54.70
2018-07-25T17:56:27.487Z,55.90
2018-07-25T17:58:55.984Z,56.70
2018-07-25T18:01:24.458Z,57.20
2018-07-25T18:06:21.440Z,59.00
2018-07-25T18:08:49.908Z,59.90
2018-07-25T18:13:52.056Z,61.60
2018-07-25T18:16:20.498Z,63.10
2018-07-25T18:18:48.981Z,64.50
2018-07-25T18:21:17.443Z,66.00
2018-07-25T18:26:14.057Z,67.70
2018-07-25T18:28:42.535Z,68.40
2018-07-25T18:31:10.992Z,69.20
2018-07-25T18:33:39.460Z,70.30
2018-07-25T18:36:07.947Z,70.00
2018-07-25T18:38:36.433Z,69.80
2018-07-25T18:41:04.908Z,71.80
2018-07-25T18:43:33.358Z,74.10
2018-07-25T18:46:01.836Z,76.60
2018-07-25T18:48:30.281Z,78.20
2018-07-25T18:50:58.740Z,78.50
2018-07-25T18:55:55.353Z,78.80
2018-07-25T18:58:23.831Z,78.90
2018-07-25T19:00:52.328Z,78.80
2018-07-25T19:03:20.786Z,79.20
2018-07-25T19:05:49.239Z,80.60
2018-07-25T19:08:17.660Z,80.50
2018-07-25T19:10:46.141Z,80.90
2018-07-25T19:13:19.879Z,82.20
2018-07-25T19:15:48.326Z,82.50
2018-07-25T19:18:16.826Z,83.00
2018-07-25T19:20:45.235Z,83.80
2018-07-25T19:23:13.704Z,84.80
2018-07-25T19:25:42.145Z,84.10
2018-07-25T19:28:10.580Z,84.40
2018-07-25T19:30:39.031Z,85.00
2018-07-25T19:33:07.485Z,86.20
2018-07-25T19:35:35.964Z,85.90
2018-07-25T19:38:04.416Z,88.30
2018-07-25T19:40:32.876Z,90.00
2018-07-25T19:43:01.305Z,90.00
2018-07-25T19:45:29.752Z,90.00
2018-07-25T19:47:58.174Z,90.20
2018-07-25T19:50:26.655Z,91.50
2018-07-25T19:52:55.090Z,92.30
2018-07-25T19:55:23.539Z,92.70
2018-07-25T19:57:51.965Z,92.50
2018-07-25T20:00:20.557Z,92.00
2018-07-25T20:02:48.971Z,91.10
2018-07-25T20:05:17.440Z,91.20
2018-07-25T20:07:45.883Z,92.10
2018-07-25T20:10:14.353Z,93.00
2018-07-25T20:12:42.934Z,94.00
2018-07-25T20:15:16.785Z,95.10
2018-07-25T20:17:45.255Z,96.70
2018-07-25T20:20:13.712Z,98.10
2018-07-25T20:22:42.139Z,97.80
2018-07-25T20:25:10.616Z,96.60
2018-07-25T20:27:39.045Z,96.50
2018-07-25T20:30:08.804Z,96.80
2018-07-25T20:32:37.478Z,96.40
2018-07-25T20:35:06.241Z,96.00
2018-07-25T20:37:35.051Z,96.20
2018-07-25T20:40:03.549Z,97.30
2018-07-25T20:42:31.992Z,98.00
2018-07-25T20:45:00.463Z,97.80
2018-07-25T20:47:28.947Z,97.70
2018-07-25T20:49:57.384Z,97.80
2018-07-25T20:52:25.829Z,98.00
2018-07-25T20:54:54.260Z,98.30
2018-07-25T20:57:22.707Z,98.70
2018-07-25T21:00:54.488Z,99.30
2018-07-25T21:03:22.902Z,99.60
2018-07-25T21:05:51.340Z,99.90
2018-07-25T21:08:19.756Z,99.90
2018-07-25T21:10:48.217Z,99.60
2018-07-25T21:13:16.647Z,99.90
2018-07-25T21:15:45.121Z,99.90
2018-07-25T21:18:13.561Z,99.90
2018-07-25T21:20:42.013Z,99.90
2018-07-25T21:23:10.436Z,99.90
2018-07-25T21:25:38.880Z,99.90
2018-07-25T21:28:07.300Z,99.90
2018-07-25T21:30:35.748Z,99.90
2018-07-25T21:33:04.184Z,99.90
2018-07-25T21:35:32.639Z,99.90
2018-07-25T21:38:01.064Z,99.90
2018-07-25T21:40:29.555Z,99.90
2018-07-25T21:42:57.993Z,99.90
2018-07-25T21:45:27.473Z,99.90
2018-07-25T21:47:56.179Z,99.90
2018-07-25T21:50:27.611Z,99.90
2018-07-25T21:52:56.080Z,99.90
2018-07-25T21:55:24.504Z,99.90
2018-07-25T21:57:52.964Z,99.90
2018-07-25T22:00:21.456Z,99.90
2018-07-25T22:02:49.899Z,99.90
2018-07-25T22:05:18.324Z,99.90
2018-07-25T22:07:47.024Z,99.90
2018-07-25T22:10:15.489Z,99.90
2018-07-25T22:12:43.952Z,99.90
2018-07-25T22:15:12.540Z,99.90
2018-07-25T22:20:11.247Z,99.90
2018-07-25T22:22:39.951Z,99.90
2018-07-25T22:25:09.229Z,99.90
2018-07-25T22:27:38.156Z,99.90
2018-07-25T22:30:07.011Z,99.90
2018-07-25T22:32:35.453Z,99.90
2018-07-25T22:35:03.931Z,99.90
2018-07-25T22:37:32.380Z,99.90
2018-07-25T22:40:00.799Z,99.90
2018-07-25T22:42:29.247Z,99.90
2018-07-25T22:44:57.680Z,99.90
2018-07-25T22:47:26.134Z,99.90
2018-07-25T22:49:54.564Z,99.90
2018-07-25T22:52:22.988Z,99.90
2018-07-25T22:54:51.437Z,99.90
2018-07-25T22:59:48.008Z,99.90
2018-07-25T23:02:16.467Z,99.90
2018-07-25T23:04:44.932Z,99.90
2018-07-25T23:07:13.365Z,99.90
2018-07-25T23:12:20.003Z,99.90
2018-07-25T23:14:48.448Z,99.90
2018-07-25T23:17:16.867Z,99.90
2018-07-25T23:19:45.354Z,99.90
2018-07-25T23:22:13.813Z,99.90
2018-07-25T23:24:42.256Z,99.90
2018-07-25T23:27:10.678Z,99.90
2018-07-25T23:29:39.159Z,99.90
2018-07-25T23:32:07.628Z,99.90
2018-07-25T23:34:36.100Z,99.90
2018-07-25T23:37:04.546Z,99.90
2018-07-25T23:39:32.999Z,99.90
2018-07-25T23:42:01.432Z,99.90
2018-07-25T23:44:29.971Z,99.90
2018-07-25T23:46:58.408Z,99.90
2018-07-25T23:49:26.828Z,99.90
2018-07-25T23:51:55.259Z,99.90
2018-07-25T23:54:23.675Z,99.90
2018-07-25T23:56:52.115Z,99.90
2018-07-25T23:59:20.593Z,99.90
